createdAt,value
2019-03-11T00:00:18.446Z,2.42
2019-03-11T00:01:23.892Z,2.50
2019-03-11T00:02:27.555Z,2.47
2019-03-11T00:03:31.220Z,1.92
2019-03-11T00:04:34.840Z,2.62
2019-03-11T00:05:38.479Z,2.37
2019-03-11T00:06:42.092Z,2.30
2019-03-11T00:07:45.893Z,3.05
2019-03-11T00:08:49.537Z,3.00
2019-03-11T00:09:53.150Z,1.87
2019-03-11T00:10:56.838Z,2.90
2019-03-11T00:12:00.486Z,2.40
2019-03-11T00:13:04.202Z,2.15
2019-03-11T00:14:07.881Z,2.20
2019-03-11T00:15:11.565Z,1.92
2019-03-11T00:16:15.176Z,2.20
2019-03-11T00:17:18.790Z,2.00
2019-03-11T00:18:22.478Z,2.30
2019-03-11T00:19:26.506Z,2.00
2019-03-11T00:20:30.134Z,1.95
2019-03-11T00:21:33.729Z,2.00
2019-03-11T00:22:37.411Z,2.02
2019-03-11T00:23:41.051Z,1.57
2019-03-11T00:24:44.680Z,1.65
2019-03-11T00:25:48.288Z,1.62
2019-03-11T00:26:51.913Z,2.00
2019-03-11T00:27:55.565Z,1.40
2019-03-11T00:28:59.184Z,1.90
2019-03-11T00:30:03.167Z,1.40
2019-03-11T00:31:06.854Z,1.60
2019-03-11T00:32:10.487Z,1.90
2019-03-11T00:33:14.098Z,2.37
2019-03-11T00:34:17.700Z,1.87
2019-03-11T00:35:21.304Z,1.80
2019-03-11T00:36:25.057Z,1.65
2019-03-11T00:37:28.682Z,2.45
2019-03-11T00:38:32.331Z,2.10
2019-03-11T00:39:35.942Z,1.77
2019-03-11T00:40:39.619Z,1.50
2019-03-11T00:41:43.264Z,1.75
2019-03-11T00:42:46.893Z,1.60
2019-03-11T00:43:50.514Z,1.42
2019-03-11T00:44:54.156Z,1.72
2019-03-11T00:45:57.837Z,1.92
2019-03-11T00:47:01.422Z,1.60
2019-03-11T00:48:05.196Z,1.35
2019-03-11T00:49:08.853Z,2.12
2019-03-11T00:50:13.175Z,1.70
2019-03-11T00:51:16.794Z,2.00
2019-03-11T00:52:20.396Z,1.35
2019-03-11T00:53:24.044Z,1.80
2019-03-11T00:54:27.648Z,1.50
2019-03-11T00:55:31.288Z,1.10
2019-03-11T00:56:34.948Z,1.47
2019-03-11T00:57:38.586Z,1.37
2019-03-11T00:58:42.219Z,1.52
2019-03-11T00:59:45.828Z,1.85
2019-03-11T01:00:49.442Z,1.40
2019-03-11T01:01:53.093Z,1.80
2019-03-11T01:02:56.775Z,1.52
2019-03-11T01:04:00.375Z,1.40
2019-03-11T01:05:05.092Z,2.60
2019-03-11T01:06:08.816Z,1.30
2019-03-11T01:07:12.421Z,1.30
2019-03-11T01:08:16.045Z,1.20
2019-03-11T01:09:19.701Z,1.52
2019-03-11T01:10:23.393Z,1.30
2019-03-11T01:11:27.041Z,2.08
2019-03-11T01:12:30.756Z,1.70
2019-03-11T01:13:34.391Z,1.70
2019-03-11T01:14:38.007Z,1.75
2019-03-11T01:15:41.759Z,1.15
2019-03-11T01:16:45.380Z,1.50
2019-03-11T01:17:49.001Z,1.55
2019-03-11T01:18:52.668Z,1.72
2019-03-11T01:19:56.265Z,2.22
2019-03-11T01:20:59.913Z,1.45
2019-03-11T01:22:03.530Z,1.20
2019-03-11T01:23:07.202Z,1.60
2019-03-11T01:24:10.861Z,1.60
2019-03-11T01:25:14.831Z,1.50
2019-03-11T01:26:18.445Z,1.85
2019-03-11T01:27:22.075Z,1.57
2019-03-11T01:28:25.731Z,1.98
2019-03-11T01:29:29.396Z,2.20
2019-03-11T01:30:33.097Z,1.27
2019-03-11T01:31:36.684Z,2.20
2019-03-11T01:32:40.287Z,2.20
2019-03-11T01:33:44.032Z,2.45
2019-03-11T01:34:47.671Z,2.00
2019-03-11T01:35:51.274Z,2.05
2019-03-11T01:36:54.869Z,1.90
2019-03-11T01:37:58.487Z,1.60
2019-03-11T01:39:02.163Z,2.20
2019-03-11T01:40:11.171Z,2.30
2019-03-11T01:41:14.839Z,2.20
2019-03-11T01:42:18.451Z,2.27
2019-03-11T01:43:22.073Z,2.20
2019-03-11T01:44:25.732Z,2.10
2019-03-11T01:45:29.388Z,2.42
2019-03-11T01:46:32.983Z,1.85
2019-03-11T01:47:36.587Z,2.17
2019-03-11T01:48:40.210Z,1.80
2019-03-11T01:49:43.823Z,1.95
2019-03-11T01:50:47.481Z,1.45
2019-03-11T01:51:51.070Z,1.75
2019-03-11T01:52:54.673Z,2.00
2019-03-11T01:53:58.327Z,2.25
2019-03-11T01:55:01.932Z,2.00
2019-03-11T01:56:05.624Z,2.40
2019-03-11T01:57:09.247Z,2.50
2019-03-11T01:58:12.847Z,2.52
2019-03-11T01:59:16.448Z,2.70
2019-03-11T02:00:20.354Z,2.35
2019-03-11T02:01:23.980Z,2.70
2019-03-11T02:02:27.591Z,2.30
2019-03-11T02:03:31.222Z,2.10
2019-03-11T02:04:34.845Z,2.12
2019-03-11T02:05:38.553Z,1.90
2019-03-11T02:06:42.187Z,2.05
2019-03-11T02:07:45.857Z,1.95
2019-03-11T02:08:49.456Z,2.25
2019-03-11T02:09:53.085Z,2.00
2019-03-11T02:10:56.706Z,2.35
2019-03-11T02:12:00.341Z,2.60
2019-03-11T02:13:04.017Z,2.80
2019-03-11T02:14:07.684Z,1.90
2019-03-11T02:15:19.218Z,2.20
2019-03-11T02:16:22.847Z,1.80
2019-03-11T02:17:26.435Z,2.77
2019-03-11T02:18:30.045Z,1.85
2019-03-11T02:19:33.699Z,2.30
2019-03-11T02:20:37.319Z,2.12
2019-03-11T02:21:40.920Z,2.67
2019-03-11T02:22:44.592Z,2.30
2019-03-11T02:23:48.232Z,2.58
2019-03-11T02:24:51.959Z,2.45
2019-03-11T02:25:55.725Z,2.55
2019-03-11T02:26:59.350Z,2.95
2019-03-11T02:28:03.008Z,3.10
2019-03-11T02:29:06.655Z,2.70
2019-03-11T02:30:12.699Z,2.80
2019-03-11T02:31:16.297Z,3.02
2019-03-11T02:32:19.984Z,3.10
2019-03-11T02:33:23.618Z,3.25
2019-03-11T02:34:27.268Z,4.03
2019-03-11T02:35:30.944Z,3.40
2019-03-11T02:36:34.565Z,2.90
2019-03-11T02:37:38.145Z,3.08
2019-03-11T02:38:41.841Z,2.75
2019-03-11T02:39:45.443Z,2.90
2019-03-11T02:40:49.055Z,3.52
2019-03-11T02:41:52.654Z,3.30
2019-03-11T02:42:56.325Z,2.98
2019-03-11T02:43:59.985Z,3.47
2019-03-11T02:45:03.794Z,3.22
2019-03-11T02:46:07.488Z,3.60
2019-03-11T02:47:11.116Z,3.25
2019-03-11T02:48:14.723Z,2.60
2019-03-11T02:49:18.356Z,3.52
2019-03-11T02:50:21.977Z,3.05
2019-03-11T02:51:25.717Z,3.15
2019-03-11T02:52:29.325Z,3.37
2019-03-11T02:53:32.952Z,2.80
2019-03-11T02:54:36.638Z,2.75
2019-03-11T02:55:40.249Z,3.20
2019-03-11T02:56:43.876Z,2.83
2019-03-11T02:57:47.529Z,2.90
2019-03-11T02:58:51.147Z,3.05
2019-03-11T02:59:54.795Z,2.45
2019-03-11T03:01:16.505Z,4.17
2019-03-11T03:02:24.777Z,3.08
2019-03-11T03:03:32.982Z,2.72
2019-03-11T03:04:38.263Z,2.80
2019-03-11T03:05:46.065Z,3.25
2019-03-11T03:06:49.725Z,3.00
2019-03-11T03:07:53.398Z,2.90
2019-03-11T03:08:57.046Z,3.00
2019-03-11T03:10:00.676Z,2.70
2019-03-11T03:11:04.295Z,3.12
2019-03-11T03:12:07.982Z,2.80
2019-03-11T03:13:11.611Z,3.05
2019-03-11T03:14:15.269Z,3.25
2019-03-11T03:15:18.929Z,2.85
2019-03-11T03:16:22.589Z,3.12
2019-03-11T03:17:26.240Z,3.85
2019-03-11T03:18:29.913Z,2.75
2019-03-11T03:19:33.608Z,2.85
2019-03-11T03:20:37.218Z,3.30
2019-03-11T03:21:40.846Z,2.98
2019-03-11T03:22:44.439Z,2.70
2019-03-11T03:23:48.085Z,3.42
2019-03-11T03:24:51.727Z,3.62
2019-03-11T03:25:55.325Z,3.60
2019-03-11T03:26:58.957Z,3.40
2019-03-11T03:28:02.821Z,3.55
2019-03-11T03:29:06.464Z,4.05
2019-03-11T03:30:15.630Z,4.55
2019-03-11T03:31:19.293Z,4.00
2019-03-11T03:32:22.865Z,3.58
2019-03-11T03:33:26.515Z,3.60
2019-03-11T03:34:30.178Z,4.58
2019-03-11T03:35:33.819Z,3.58
2019-03-11T03:36:37.443Z,3.55
2019-03-11T03:37:41.097Z,3.67
2019-03-11T03:38:44.700Z,3.45
2019-03-11T03:39:48.329Z,4.47
2019-03-11T03:40:51.967Z,4.17
2019-03-11T03:41:55.590Z,3.75
2019-03-11T03:42:59.431Z,3.42
2019-03-11T03:44:03.262Z,3.90
2019-03-11T03:45:33.817Z,4.03
2019-03-11T03:46:37.430Z,3.90
2019-03-11T03:47:41.113Z,3.55
2019-03-11T03:48:44.944Z,2.50
2019-03-11T03:49:48.646Z,1.20
2019-03-11T03:50:52.281Z,1.05
2019-03-11T03:51:55.894Z,0.70
2019-03-11T03:52:59.640Z,0.50
2019-03-11T03:54:03.317Z,0.50
2019-03-11T03:55:06.975Z,0.70
2019-03-11T03:56:10.652Z,0.60
2019-03-11T03:57:14.261Z,0.60
2019-03-11T03:58:17.927Z,0.62
2019-03-11T03:59:21.578Z,0.60
2019-03-11T04:00:25.182Z,0.55
2019-03-11T04:01:28.828Z,0.50
2019-03-11T04:02:32.544Z,0.60
2019-03-11T04:03:36.241Z,0.50
2019-03-11T04:04:39.863Z,0.70
2019-03-11T04:05:43.482Z,0.50
2019-03-11T04:06:47.167Z,0.60
2019-03-11T04:07:50.791Z,0.60
2019-03-11T04:08:54.431Z,0.50
2019-03-11T04:09:58.130Z,0.50
2019-03-11T04:11:01.824Z,0.60
2019-03-11T04:12:05.432Z,0.55
2019-03-11T04:13:09.145Z,0.50
2019-03-11T04:14:12.947Z,0.68
2019-03-11T04:15:16.752Z,0.70
2019-03-11T04:16:20.447Z,0.60
2019-03-11T04:17:24.146Z,0.60
2019-03-11T04:18:48.209Z,0.70
2019-03-11T04:19:52.051Z,0.60
2019-03-11T04:20:55.740Z,0.60
2019-03-11T04:21:59.415Z,0.60
2019-03-11T04:23:03.201Z,0.60
2019-03-11T04:24:06.863Z,0.80
2019-03-11T04:25:10.952Z,0.70
2019-03-11T04:26:14.857Z,0.62
2019-03-11T04:27:18.638Z,0.80
2019-03-11T04:28:22.366Z,0.80
2019-03-11T04:29:26.022Z,0.70
2019-03-11T04:30:29.811Z,0.95
2019-03-11T04:31:33.435Z,0.90
2019-03-11T04:32:37.111Z,1.00
2019-03-11T04:33:40.833Z,0.80
2019-03-11T04:34:44.468Z,0.70
2019-03-11T04:35:48.102Z,0.88
2019-03-11T04:36:51.762Z,1.00
2019-03-11T04:37:55.392Z,0.80
2019-03-11T04:38:59.105Z,1.00
2019-03-11T04:40:02.954Z,1.00
2019-03-11T04:41:06.627Z,1.25
2019-03-11T04:42:10.243Z,1.50
2019-03-11T04:43:13.852Z,1.25
2019-03-11T04:44:17.544Z,1.60
2019-03-11T04:45:21.205Z,1.80
2019-03-11T04:46:24.818Z,1.77
2019-03-11T04:47:28.494Z,1.70
2019-03-11T04:48:32.121Z,1.60
2019-03-11T04:49:35.796Z,1.55
2019-03-11T04:50:39.479Z,1.60
2019-03-11T04:51:43.118Z,1.72
2019-03-11T04:52:46.859Z,2.10
2019-03-11T04:53:50.451Z,1.90
2019-03-11T04:54:54.063Z,1.80
2019-03-11T04:55:57.751Z,2.10
2019-03-11T04:57:01.401Z,2.22
2019-03-11T04:58:05.131Z,2.12
2019-03-11T04:59:13.589Z,2.40
2019-03-11T05:00:22.594Z,2.80
2019-03-11T05:01:26.216Z,2.30
2019-03-11T05:02:29.799Z,2.42
2019-03-11T05:03:33.493Z,3.10
2019-03-11T05:04:37.091Z,2.72
2019-03-11T05:05:40.794Z,3.05
2019-03-11T05:06:44.406Z,3.37
2019-03-11T05:07:48.051Z,2.60
2019-03-11T05:08:51.677Z,2.77
2019-03-11T05:09:55.372Z,2.75
2019-03-11T05:10:58.973Z,3.10
2019-03-11T05:12:02.576Z,3.05
2019-03-11T05:13:06.262Z,3.25
2019-03-11T05:14:09.853Z,3.67
2019-03-11T05:15:14.507Z,3.50
2019-03-11T05:16:18.111Z,3.85
2019-03-11T05:17:21.713Z,3.52
2019-03-11T05:18:28.400Z,3.33
2019-03-11T05:19:32.092Z,3.50
2019-03-11T05:20:35.695Z,3.17
2019-03-11T05:21:39.323Z,3.77
2019-03-11T05:22:43.181Z,3.25
2019-03-11T05:23:46.847Z,3.65
2019-03-11T05:24:50.508Z,3.15
2019-03-11T05:25:54.143Z,3.67
2019-03-11T05:26:57.734Z,4.12
2019-03-11T05:28:01.404Z,3.52
2019-03-11T05:29:05.180Z,4.33
2019-03-11T05:30:17.169Z,3.90
2019-03-11T05:31:20.862Z,3.47
2019-03-11T05:32:24.538Z,3.95
2019-03-11T05:33:28.320Z,4.40
2019-03-11T05:34:31.937Z,3.80
2019-03-11T05:35:35.555Z,3.75
2019-03-11T05:36:39.179Z,5.12
2019-03-11T05:37:42.897Z,4.28
2019-03-11T05:38:46.510Z,4.58
2019-03-11T05:39:50.093Z,4.75
2019-03-11T05:40:53.690Z,4.67
2019-03-11T05:41:57.294Z,4.90
2019-03-11T05:43:00.951Z,4.62
2019-03-11T05:44:04.574Z,4.97
2019-03-11T05:45:10.943Z,5.85
2019-03-11T05:46:14.550Z,5.05
2019-03-11T05:47:18.205Z,4.92
2019-03-11T05:48:21.877Z,5.30
2019-03-11T05:49:25.627Z,4.97
2019-03-11T05:50:29.230Z,5.08
2019-03-11T05:51:32.857Z,4.92
2019-03-11T05:52:36.469Z,5.05
2019-03-11T05:53:40.138Z,5.80
2019-03-11T05:54:43.755Z,5.50
2019-03-11T05:55:47.535Z,5.12
2019-03-11T05:56:51.174Z,5.35
2019-03-11T05:57:54.784Z,5.37
2019-03-11T05:58:58.444Z,5.78
2019-03-11T06:00:02.037Z,5.72
2019-03-11T06:01:05.717Z,5.58
2019-03-11T06:02:09.312Z,5.17
2019-03-11T06:03:12.916Z,5.35
2019-03-11T06:04:16.526Z,5.15
2019-03-11T06:05:20.280Z,5.75
2019-03-11T06:06:23.931Z,5.72
2019-03-11T06:07:27.548Z,5.55
2019-03-11T06:08:31.145Z,6.80
2019-03-11T06:09:34.766Z,5.70
2019-03-11T06:10:38.457Z,5.45
2019-03-11T06:11:42.121Z,6.08
2019-03-11T06:12:45.887Z,5.60
2019-03-11T06:13:49.508Z,6.00
2019-03-11T06:14:53.120Z,5.00
2019-03-11T06:15:56.825Z,5.53
2019-03-11T06:17:00.486Z,5.40
2019-03-11T06:18:04.140Z,6.35
2019-03-11T06:19:07.728Z,6.00
2019-03-11T06:20:33.731Z,5.67
2019-03-11T06:21:41.927Z,5.33
2019-03-11T06:22:45.616Z,5.87
2019-03-11T06:23:49.277Z,5.40
2019-03-11T06:24:52.997Z,5.67
2019-03-11T06:25:56.599Z,4.75
2019-03-11T06:27:00.215Z,4.80
2019-03-11T06:28:03.819Z,4.35
2019-03-11T06:29:07.499Z,4.62
2019-03-11T06:30:11.753Z,5.17
2019-03-11T06:31:15.359Z,5.15
2019-03-11T06:32:19.063Z,4.45
2019-03-11T06:33:22.666Z,4.92
2019-03-11T06:34:26.327Z,4.50
2019-03-11T06:35:29.948Z,4.75
2019-03-11T06:36:33.686Z,4.95
2019-03-11T06:37:37.291Z,4.60
2019-03-11T06:38:40.982Z,4.67
2019-03-11T06:39:44.612Z,4.60
2019-03-11T06:40:48.274Z,5.15
2019-03-11T06:41:51.904Z,5.25
2019-03-11T06:42:55.532Z,3.60
2019-03-11T06:43:59.206Z,4.20
2019-03-11T06:45:02.857Z,3.87
2019-03-11T06:46:06.459Z,3.90
2019-03-11T06:47:10.074Z,3.67
2019-03-11T06:48:13.701Z,3.50
2019-03-11T06:49:17.339Z,3.72
2019-03-11T06:50:21.068Z,3.90
2019-03-11T06:51:24.681Z,3.67
2019-03-11T06:52:28.356Z,4.30
2019-03-11T06:53:31.965Z,4.20
2019-03-11T06:54:35.564Z,4.05
2019-03-11T06:55:39.226Z,3.33
2019-03-11T06:56:42.834Z,4.15
2019-03-11T06:57:46.441Z,3.80
2019-03-11T06:58:50.136Z,4.85
2019-03-11T06:59:53.767Z,4.15
2019-03-11T07:00:57.467Z,4.45
2019-03-11T07:02:01.180Z,4.17
2019-03-11T07:03:04.797Z,3.92
2019-03-11T07:04:08.547Z,3.52
2019-03-11T07:05:20.119Z,4.55
2019-03-11T07:06:17.709Z,5.25
2019-03-11T07:07:21.424Z,4.78
2019-03-11T07:08:25.033Z,5.50
2019-03-11T07:09:28.714Z,4.87
2019-03-11T07:10:32.447Z,4.20
2019-03-11T07:11:36.106Z,3.77
2019-03-11T07:12:39.789Z,3.67
2019-03-11T07:13:43.423Z,3.98
2019-03-11T07:14:47.051Z,3.22
2019-03-11T07:15:50.679Z,4.05
2019-03-11T07:16:54.326Z,3.33
2019-03-11T07:17:57.941Z,3.30
2019-03-11T07:19:01.574Z,3.45
2019-03-11T07:20:14.115Z,3.50
2019-03-11T07:21:17.722Z,3.77
2019-03-11T07:22:21.391Z,3.35
2019-03-11T07:23:25.002Z,2.80
2019-03-11T07:24:28.625Z,3.12
2019-03-11T07:25:32.218Z,2.95
2019-03-11T07:26:35.832Z,3.05
2019-03-11T07:27:39.503Z,2.58
2019-03-11T07:28:43.137Z,2.67
2019-03-11T07:29:46.743Z,2.50
2019-03-11T07:30:50.419Z,2.85
2019-03-11T07:31:54.040Z,2.62
2019-03-11T07:32:57.735Z,2.80
2019-03-11T07:34:01.348Z,1.67
2019-03-11T07:35:08.794Z,2.80
2019-03-11T07:36:10.856Z,2.92
2019-03-11T07:37:14.578Z,2.75
2019-03-11T07:38:18.406Z,3.12
2019-03-11T07:39:21.997Z,1.92
2019-03-11T07:40:30.155Z,2.70
2019-03-11T07:41:30.871Z,3.50
2019-03-11T07:42:34.575Z,2.65
2019-03-11T07:43:38.244Z,3.20
2019-03-11T07:44:41.909Z,2.70
2019-03-11T07:45:45.519Z,2.95
2019-03-11T07:46:49.298Z,2.70
2019-03-11T07:47:52.936Z,3.00
2019-03-11T07:48:56.573Z,2.25
2019-03-11T07:50:00.365Z,3.10
2019-03-11T07:51:04.170Z,2.30
2019-03-11T07:52:07.871Z,4.17
2019-03-11T07:53:11.571Z,2.60
2019-03-11T07:54:15.176Z,2.47
2019-03-11T07:55:19.033Z,2.72
2019-03-11T07:56:22.773Z,3.00
2019-03-11T07:57:26.383Z,3.35
2019-03-11T07:58:30.003Z,3.62
2019-03-11T07:59:33.613Z,3.15
2019-03-11T08:00:37.285Z,2.67
2019-03-11T08:01:40.942Z,2.85
2019-03-11T08:02:44.573Z,2.77
2019-03-11T08:03:48.182Z,2.37
2019-03-11T08:04:51.829Z,2.67
2019-03-11T08:05:55.441Z,3.02
2019-03-11T08:06:59.035Z,2.70
2019-03-11T08:08:02.765Z,3.02
2019-03-11T08:09:07.215Z,2.65
2019-03-11T08:10:22.099Z,2.55
2019-03-11T08:11:25.719Z,2.75
2019-03-11T08:12:29.398Z,3.30
2019-03-11T08:13:33.090Z,3.52
2019-03-11T08:14:36.696Z,2.75
2019-03-11T08:15:40.365Z,3.40
2019-03-11T08:16:44.007Z,2.58
2019-03-11T08:17:47.619Z,2.55
2019-03-11T08:18:51.230Z,2.65
2019-03-11T08:19:55.309Z,2.60
2019-03-11T08:20:58.996Z,2.50
2019-03-11T08:22:02.618Z,2.25
2019-03-11T08:23:06.238Z,3.00
2019-03-11T08:24:09.906Z,2.45
2019-03-11T08:25:15.721Z,2.40
2019-03-11T08:26:19.387Z,3.90
2019-03-11T08:27:23.063Z,2.98
2019-03-11T08:28:26.611Z,3.05
2019-03-11T08:29:30.320Z,2.75
2019-03-11T08:30:34.045Z,3.33
2019-03-11T08:31:37.698Z,3.40
2019-03-11T08:32:41.404Z,2.60
2019-03-11T08:33:45.084Z,2.92
2019-03-11T08:34:48.705Z,2.77
2019-03-11T08:35:52.332Z,3.40
2019-03-11T08:36:56.010Z,3.30
2019-03-11T08:38:04.922Z,3.35
2019-03-11T08:39:07.958Z,3.65
2019-03-11T08:40:18.919Z,3.33
2019-03-11T08:41:22.525Z,3.42
2019-03-11T08:42:26.219Z,3.50
2019-03-11T08:43:29.816Z,3.00
2019-03-11T08:44:33.431Z,3.02
2019-03-11T08:45:37.036Z,3.60
2019-03-11T08:46:40.725Z,3.08
2019-03-11T08:47:44.392Z,2.80
2019-03-11T08:48:48.005Z,3.50
2019-03-11T08:49:51.659Z,3.02
2019-03-11T08:50:55.264Z,2.92
2019-03-11T08:51:58.884Z,3.00
2019-03-11T08:53:02.558Z,3.40
2019-03-11T08:54:06.246Z,2.80
2019-03-11T08:55:10.319Z,2.50
2019-03-11T08:56:13.909Z,2.90
2019-03-11T08:57:17.539Z,2.60
2019-03-11T08:58:21.187Z,3.20
2019-03-11T08:59:24.805Z,3.12
2019-03-11T09:00:28.425Z,3.20
2019-03-11T09:01:32.038Z,2.60
2019-03-11T09:02:35.630Z,3.00
2019-03-11T09:03:39.310Z,3.40
2019-03-11T09:04:42.957Z,2.50
2019-03-11T09:05:46.590Z,2.35
2019-03-11T09:06:50.190Z,2.60
2019-03-11T09:07:53.871Z,2.85
2019-03-11T09:08:57.498Z,2.22
2019-03-11T09:10:01.138Z,2.75
2019-03-11T09:11:04.815Z,2.90
2019-03-11T09:12:08.429Z,3.00
2019-03-11T09:13:12.052Z,2.70
2019-03-11T09:14:15.725Z,2.45
2019-03-11T09:15:22.742Z,3.00
2019-03-11T09:16:26.345Z,2.08
2019-03-11T09:17:29.956Z,2.42
2019-03-11T09:18:33.618Z,2.45
2019-03-11T09:19:37.274Z,2.15
2019-03-11T09:20:40.870Z,2.30
2019-03-11T09:21:44.484Z,2.75
2019-03-11T09:22:48.184Z,3.00
2019-03-11T09:23:51.785Z,2.72
2019-03-11T09:24:55.439Z,2.65
2019-03-11T09:25:59.036Z,2.80
2019-03-11T09:27:02.661Z,2.52
2019-03-11T09:28:06.271Z,2.75
2019-03-11T09:29:09.871Z,3.25
2019-03-11T09:30:19.143Z,3.00
2019-03-11T09:31:22.720Z,3.08
2019-03-11T09:32:26.339Z,2.67
2019-03-11T09:33:29.972Z,2.25
2019-03-11T09:34:33.712Z,2.50
2019-03-11T09:35:37.309Z,3.08
2019-03-11T09:36:40.939Z,3.30
2019-03-11T09:37:44.646Z,2.22
2019-03-11T09:38:48.371Z,3.60
2019-03-11T09:39:52.048Z,2.77
2019-03-11T09:40:55.731Z,3.00
2019-03-11T09:41:59.349Z,2.62
2019-03-11T09:43:02.940Z,3.00
2019-03-11T09:44:06.545Z,2.40
2019-03-11T09:45:13.019Z,2.35
2019-03-11T09:46:16.640Z,2.60
2019-03-11T09:47:20.273Z,3.15
2019-03-11T09:48:23.920Z,3.25
2019-03-11T09:49:27.521Z,2.67
2019-03-11T09:50:31.187Z,2.80
2019-03-11T09:51:34.805Z,3.12
2019-03-11T09:52:38.408Z,3.10
2019-03-11T09:53:42.020Z,1.92
2019-03-11T09:54:45.609Z,2.85
2019-03-11T09:55:49.323Z,2.75
2019-03-11T09:56:52.924Z,2.85
2019-03-11T09:57:56.588Z,3.25
2019-03-11T09:59:00.208Z,3.10
2019-03-11T10:00:05.616Z,3.00
2019-03-11T10:01:09.261Z,3.05
2019-03-11T10:02:12.932Z,3.17
2019-03-11T10:03:16.542Z,2.67
2019-03-11T10:04:20.202Z,2.55
2019-03-11T10:05:23.808Z,2.47
2019-03-11T10:06:27.453Z,3.40
2019-03-11T10:07:31.067Z,2.75
2019-03-11T10:08:34.716Z,2.75
2019-03-11T10:09:38.297Z,2.60
2019-03-11T10:10:41.891Z,2.77
2019-03-11T10:11:45.543Z,2.40
2019-03-11T10:12:49.215Z,2.25
2019-03-11T10:13:52.837Z,2.80
2019-03-11T10:14:56.432Z,2.70
2019-03-11T10:16:00.066Z,2.58
2019-03-11T10:17:03.815Z,3.02
2019-03-11T10:18:07.483Z,2.47
2019-03-11T10:19:11.099Z,3.35
2019-03-11T10:20:16.252Z,2.98
2019-03-11T10:21:19.844Z,3.25
2019-03-11T10:22:23.506Z,3.35
2019-03-11T10:23:32.142Z,3.00
2019-03-11T10:24:32.389Z,3.27
2019-03-11T10:25:36.001Z,2.80
2019-03-11T10:26:39.609Z,3.33
2019-03-11T10:27:43.346Z,4.12
2019-03-11T10:28:46.998Z,3.50
2019-03-11T10:29:50.669Z,3.30
2019-03-11T10:30:54.290Z,3.42
2019-03-11T10:31:57.893Z,3.58
2019-03-11T10:33:01.570Z,3.47
2019-03-11T10:34:05.302Z,3.72
2019-03-11T10:35:30.310Z,3.77
2019-03-11T10:36:16.323Z,3.55
2019-03-11T10:37:19.940Z,3.55
2019-03-11T10:38:23.544Z,3.77
2019-03-11T10:39:27.167Z,3.20
2019-03-11T10:40:31.955Z,4.20
2019-03-11T10:41:35.609Z,4.30
2019-03-11T10:42:39.248Z,4.08
2019-03-11T10:43:42.840Z,2.92
2019-03-11T10:44:46.465Z,4.10
2019-03-11T10:45:50.118Z,3.65
2019-03-11T10:46:53.771Z,4.40
2019-03-11T10:47:57.505Z,4.17
2019-03-11T10:49:01.130Z,5.03
2019-03-11T10:50:07.585Z,6.35
2019-03-11T10:51:11.273Z,4.37
2019-03-11T10:52:14.905Z,4.20
2019-03-11T10:53:18.528Z,6.58
2019-03-11T10:54:22.134Z,3.65
2019-03-11T10:55:26.480Z,3.60
2019-03-11T10:56:30.106Z,4.05
2019-03-11T10:57:33.742Z,3.67
2019-03-11T10:58:37.347Z,3.40
2019-03-11T10:59:41.011Z,4.70
2019-03-11T11:00:44.624Z,4.33
2019-03-11T11:01:48.267Z,3.42
2019-03-11T11:02:51.937Z,4.47
2019-03-11T11:03:55.599Z,4.40
2019-03-11T11:04:59.197Z,3.95
2019-03-11T11:06:02.836Z,3.15
2019-03-11T11:07:06.506Z,3.67
2019-03-11T11:08:10.125Z,4.40
2019-03-11T11:09:13.949Z,3.22
2019-03-11T11:10:18.511Z,3.20
2019-03-11T11:11:22.109Z,3.67
2019-03-11T11:12:25.706Z,3.55
2019-03-11T11:13:29.310Z,3.80
2019-03-11T11:14:32.964Z,3.35
2019-03-11T11:15:36.588Z,2.60
2019-03-11T11:16:40.201Z,3.27
2019-03-11T11:17:43.890Z,3.77
2019-03-11T11:18:48.402Z,3.17
2019-03-11T11:20:02.536Z,3.08
2019-03-11T11:20:57.368Z,3.30
2019-03-11T11:22:00.980Z,2.60
2019-03-11T11:23:04.716Z,3.10
2019-03-11T11:24:08.329Z,2.85
2019-03-11T11:25:14.899Z,3.08
2019-03-11T11:26:18.498Z,3.37
2019-03-11T11:27:22.296Z,3.00
2019-03-11T11:28:25.924Z,2.55
2019-03-11T11:29:29.603Z,2.90
2019-03-11T11:30:33.344Z,3.30
2019-03-11T11:31:36.951Z,3.12
2019-03-11T11:32:40.586Z,2.17
2019-03-11T11:33:44.199Z,2.35
2019-03-11T11:34:47.933Z,2.15
2019-03-11T11:35:51.528Z,2.22
2019-03-11T11:36:55.117Z,2.12
2019-03-11T11:37:58.790Z,2.40
2019-03-11T11:39:02.391Z,2.10
2019-03-11T11:40:09.114Z,2.27
2019-03-11T11:41:12.740Z,2.47
2019-03-11T11:42:16.342Z,2.00
2019-03-11T11:43:19.959Z,1.92
2019-03-11T11:44:23.561Z,1.80
2019-03-11T11:45:28.484Z,1.85
2019-03-11T11:46:32.182Z,2.55
2019-03-11T11:47:35.793Z,2.30
2019-03-11T11:48:39.411Z,2.22
2019-03-11T11:49:43.043Z,2.50
2019-03-11T11:50:46.702Z,2.47
2019-03-11T11:51:50.361Z,2.20
2019-03-11T11:52:54.121Z,2.47
2019-03-11T11:53:57.749Z,2.40
2019-03-11T11:55:01.361Z,2.62
2019-03-11T11:56:05.174Z,2.60
2019-03-11T11:57:08.799Z,3.00
2019-03-11T11:58:12.424Z,3.20
2019-03-11T11:59:16.080Z,2.80
2019-03-11T12:00:40.541Z,3.10
2019-03-11T12:01:44.186Z,2.80
2019-03-11T12:02:47.853Z,2.90
2019-03-11T12:03:51.539Z,2.87
2019-03-11T12:04:55.172Z,3.02
2019-03-11T12:05:58.808Z,3.40
2019-03-11T12:07:02.436Z,3.10
2019-03-11T12:08:06.015Z,3.02
2019-03-11T12:09:09.832Z,3.77
2019-03-11T12:10:16.195Z,3.20
2019-03-11T12:11:19.806Z,3.30
2019-03-11T12:12:23.422Z,3.37
2019-03-11T12:13:27.032Z,3.70
2019-03-11T12:14:30.694Z,3.17
2019-03-11T12:15:34.360Z,3.47
2019-03-11T12:16:37.972Z,3.25
2019-03-11T12:17:41.753Z,3.20
2019-03-11T12:18:45.359Z,2.77
2019-03-11T12:19:49.037Z,3.10
2019-03-11T12:20:52.642Z,4.10
2019-03-11T12:21:56.257Z,3.20
2019-03-11T12:22:59.929Z,3.12
2019-03-11T12:24:03.513Z,3.72
2019-03-11T12:25:12.251Z,3.67
2019-03-11T12:26:15.849Z,4.05
2019-03-11T12:27:19.554Z,4.75
2019-03-11T12:28:23.239Z,4.30
2019-03-11T12:29:28.116Z,3.83
2019-03-11T12:30:33.300Z,3.60
2019-03-11T12:31:36.880Z,3.87
2019-03-11T12:32:40.638Z,3.60
2019-03-11T12:33:44.208Z,4.03
2019-03-11T12:34:47.818Z,4.45
2019-03-11T12:35:51.466Z,4.10
2019-03-11T12:36:55.163Z,4.12
2019-03-11T12:37:58.891Z,3.60
2019-03-11T12:39:02.493Z,3.72
2019-03-11T12:40:09.447Z,3.90
2019-03-11T12:41:13.112Z,4.33
2019-03-11T12:42:16.743Z,4.17
2019-03-11T12:43:20.439Z,4.20
2019-03-11T12:44:24.042Z,4.42
2019-03-11T12:45:27.935Z,3.85
2019-03-11T12:46:31.614Z,3.92
2019-03-11T12:47:35.254Z,4.30
2019-03-11T12:48:38.996Z,5.08
2019-03-11T12:49:42.612Z,4.50
2019-03-11T12:50:46.230Z,4.10
2019-03-11T12:51:50.335Z,4.50
2019-03-11T12:52:54.114Z,4.17
2019-03-11T12:53:57.760Z,4.45
2019-03-11T12:55:01.379Z,4.45
2019-03-11T12:56:04.978Z,4.20
2019-03-11T12:57:08.581Z,4.50
2019-03-11T12:58:12.304Z,5.05
2019-03-11T12:59:15.954Z,4.30
2019-03-11T13:00:23.071Z,4.37
2019-03-11T13:01:26.752Z,4.50
2019-03-11T13:02:30.378Z,5.28
2019-03-11T13:03:34.079Z,4.92
2019-03-11T13:04:37.698Z,4.75
2019-03-11T13:05:41.337Z,5.03
2019-03-11T13:06:44.949Z,4.60
2019-03-11T13:07:48.824Z,4.62
2019-03-11T13:08:52.463Z,4.70
2019-03-11T13:09:56.088Z,5.17
2019-03-11T13:10:59.690Z,4.35
2019-03-11T13:12:03.369Z,4.40
2019-03-11T13:13:07.016Z,4.60
2019-03-11T13:14:10.617Z,4.85
2019-03-11T13:15:15.842Z,4.75
2019-03-11T13:16:19.515Z,4.20
2019-03-11T13:17:23.151Z,4.42
2019-03-11T13:18:35.268Z,4.42
2019-03-11T13:19:38.933Z,4.92
2019-03-11T13:20:42.587Z,4.08
2019-03-11T13:21:46.215Z,4.28
2019-03-11T13:22:51.558Z,4.12
2019-03-11T13:23:55.158Z,4.45
2019-03-11T13:24:58.902Z,3.87
2019-03-11T13:26:02.560Z,4.55
2019-03-11T13:27:06.282Z,4.80
2019-03-11T13:28:09.912Z,4.92
2019-03-11T13:29:13.504Z,4.37
2019-03-11T13:30:17.647Z,4.60
2019-03-11T13:31:21.480Z,5.20
2019-03-11T13:32:27.027Z,4.80
2019-03-11T13:33:30.353Z,4.45
2019-03-11T13:34:33.951Z,3.75
2019-03-11T13:35:37.580Z,4.92
2019-03-11T13:36:41.248Z,3.70
2019-03-11T13:37:44.928Z,5.50
2019-03-11T13:38:48.529Z,3.50
2019-03-11T13:39:52.278Z,4.17
2019-03-11T13:40:55.902Z,4.45
2019-03-11T13:41:59.575Z,4.53
2019-03-11T13:43:03.165Z,3.92
2019-03-11T13:44:06.785Z,4.40
2019-03-11T13:45:18.091Z,4.37
2019-03-11T13:46:21.733Z,4.40
2019-03-11T13:47:25.342Z,3.90
2019-03-11T13:48:29.175Z,3.65
2019-03-11T13:49:32.803Z,3.92
2019-03-11T13:50:36.483Z,4.35
2019-03-11T13:51:40.217Z,4.35
2019-03-11T13:52:43.859Z,4.15
2019-03-11T13:53:47.566Z,4.62
2019-03-11T13:54:51.156Z,3.50
2019-03-11T13:55:54.787Z,3.40
2019-03-11T13:56:58.410Z,3.45
2019-03-11T13:58:02.056Z,3.75
2019-03-11T13:59:05.723Z,4.22
2019-03-11T14:00:19.703Z,3.60
2019-03-11T14:01:23.371Z,3.95
2019-03-11T14:02:27.006Z,4.67
2019-03-11T14:03:30.658Z,3.98
2019-03-11T14:04:34.299Z,4.20
2019-03-11T14:05:37.988Z,3.92
2019-03-11T14:06:41.574Z,3.85
2019-03-11T14:07:45.521Z,3.62
2019-03-11T14:08:49.199Z,3.40
2019-03-11T14:09:52.809Z,4.10
2019-03-11T14:10:56.471Z,4.10
2019-03-11T14:12:00.154Z,3.87